createdAt,value
2023-09-30T00:00:34.199Z,975.0500
2023-09-30T00:01:36.313Z,975.0500
2023-09-30T00:02:38.562Z,975.0700
2023-09-30T00:03:40.949Z,975.0900
2023-09-30T00:04:43.008Z,975.0900
2023-09-30T00:05:45.068Z,975.1100
2023-09-30T00:06:47.199Z,975.1100
2023-09-30T00:07:49.311Z,975.0900
2023-09-30T00:08:51.442Z,975.0900
2023-09-30T00:09:53.599Z,975.0900
2023-09-30T00:10:55.815Z,975.0700
2023-09-30T00:11:57.905Z,975.0700
2023-09-30T00:13:00.055Z,975.0500
2023-09-30T00:14:02.197Z,975.0700
2023-09-30T00:15:04.377Z,975.1100
2023-09-30T00:16:06.600Z,975.1100
2023-09-30T00:17:08.685Z,975.1400
2023-09-30T00:18:10.917Z,975.1600
2023-09-30T00:19:12.975Z,975.1600
2023-09-30T00:20:15.133Z,975.1600
2023-09-30T00:21:17.362Z,975.1800
2023-09-30T00:22:19.396Z,975.1800
2023-09-30T00:23:21.505Z,975.1800
2023-09-30T00:24:23.676Z,975.2200
2023-09-30T00:25:25.933Z,975.2200
2023-09-30T00:26:28.129Z,975.2000
2023-09-30T00:27:30.360Z,975.2000
2023-09-30T00:28:32.507Z,975.2200
2023-09-30T00:29:34.718Z,975.2400
2023-09-30T00:30:37.056Z,975.2600
2023-09-30T00:31:39.250Z,975.2400
2023-09-30T00:32:41.312Z,975.2400
2023-09-30T00:33:43.510Z,975.2200
2023-09-30T00:34:45.630Z,975.2400
2023-09-30T00:35:47.789Z,975.2600
2023-09-30T00:36:50.115Z,975.2600
2023-09-30T00:37:52.066Z,975.3200
2023-09-30T00:38:54.226Z,975.3400
2023-09-30T00:39:56.327Z,975.3800
2023-09-30T00:40:58.474Z,975.3800
2023-09-30T00:42:00.633Z,975.3600
2023-09-30T00:43:02.755Z,975.3400
2023-09-30T00:44:04.909Z,975.2800
2023-09-30T00:45:07.073Z,975.2600
2023-09-30T00:46:09.267Z,975.2400
2023-09-30T00:47:11.433Z,975.2200
2023-09-30T00:48:13.633Z,975.2200
2023-09-30T00:49:13.617Z,975.2000
2023-09-30T00:50:15.733Z,975.1800
2023-09-30T00:51:17.917Z,975.1400
2023-09-30T00:52:20.029Z,975.1300
2023-09-30T00:53:22.158Z,975.1100
2023-09-30T00:54:24.342Z,975.0900
2023-09-30T00:55:26.453Z,975.0900
2023-09-30T00:56:28.601Z,975.0700
2023-09-30T00:57:30.962Z,975.0700
2023-09-30T00:58:33.036Z,975.0900
2023-09-30T00:59:35.285Z,975.0500
2023-09-30T01:00:37.535Z,975.0300
2023-09-30T01:01:39.723Z,975.0100
2023-09-30T01:02:42.085Z,974.9900
2023-09-30T01:03:44.224Z,974.9900
2023-09-30T01:04:46.221Z,974.9500
2023-09-30T01:05:48.360Z,974.9500
2023-09-30T01:06:50.584Z,974.9500
2023-09-30T01:07:52.761Z,974.9500
2023-09-30T01:08:54.899Z,974.9300
2023-09-30T01:09:57.064Z,974.9100
2023-09-30T01:10:59.245Z,974.8900
2023-09-30T01:12:01.362Z,974.8700
2023-09-30T01:13:03.626Z,974.8700
2023-09-30T01:14:05.690Z,974.8700
2023-09-30T01:15:08.635Z,974.8700
2023-09-30T01:16:10.022Z,974.8900
2023-09-30T01:17:12.158Z,974.8900
2023-09-30T01:18:12.290Z,974.8700
2023-09-30T01:19:14.341Z,974.8700
2023-09-30T01:20:16.556Z,974.8500
2023-09-30T01:21:18.682Z,974.8700
2023-09-30T01:22:20.849Z,974.8300
2023-09-30T01:23:23.144Z,974.8100
2023-09-30T01:24:25.255Z,974.8100
2023-09-30T01:25:27.372Z,974.8300
2023-09-30T01:26:29.585Z,974.8500
2023-09-30T01:27:31.794Z,974.8500
2023-09-30T01:28:33.880Z,974.8500
2023-09-30T01:29:36.014Z,974.8300
2023-09-30T01:30:36.111Z,974.8100
2023-09-30T01:31:38.211Z,974.7900
2023-09-30T01:32:40.404Z,974.7700
2023-09-30T01:33:42.609Z,974.7500
2023-09-30T01:34:44.732Z,974.7700
2023-09-30T01:35:46.936Z,974.7900
2023-09-30T01:36:47.113Z,974.8100
2023-09-30T01:37:49.150Z,974.7700
2023-09-30T01:38:51.379Z,974.8700
2023-09-30T01:39:53.518Z,974.8100
2023-09-30T01:40:57.436Z,974.8500
2023-09-30T01:41:57.917Z,974.7700
2023-09-30T01:43:00.118Z,974.7700
2023-09-30T01:44:02.348Z,974.8100
2023-09-30T01:45:04.528Z,974.7700
2023-09-30T01:46:06.808Z,974.7900
2023-09-30T01:47:08.940Z,974.7900
2023-09-30T01:48:11.115Z,974.7900
2023-09-30T01:49:13.291Z,974.7700
2023-09-30T01:50:15.421Z,974.7700
2023-09-30T01:51:17.591Z,974.7500
2023-09-30T01:52:19.671Z,974.7500
2023-09-30T01:53:21.854Z,974.6500
2023-09-30T01:54:24.145Z,974.6100
2023-09-30T01:55:26.219Z,974.6100
2023-09-30T01:56:28.390Z,974.5900
2023-09-30T01:57:30.611Z,974.6100
2023-09-30T01:58:32.710Z,974.6300
2023-09-30T01:59:34.893Z,974.6500
2023-09-30T02:00:37.008Z,974.6700
2023-09-30T02:01:39.169Z,974.6700
2023-09-30T02:02:41.340Z,974.6700
2023-09-30T02:03:43.569Z,974.6700
2023-09-30T02:04:45.624Z,974.7700
2023-09-30T02:05:47.747Z,974.7900
2023-09-30T02:06:49.925Z,974.7900
2023-09-30T02:07:52.203Z,974.7500
2023-09-30T02:08:54.264Z,974.6700
2023-09-30T02:09:56.465Z,974.6500
2023-09-30T02:10:56.555Z,974.6100
2023-09-30T02:11:58.774Z,974.6100
2023-09-30T02:13:01.053Z,974.6500
2023-09-30T02:14:03.233Z,974.6500
2023-09-30T02:15:05.424Z,974.6500
2023-09-30T02:16:05.473Z,974.6300
2023-09-30T02:17:07.697Z,974.6300
2023-09-30T02:18:10.003Z,974.6100
2023-09-30T02:19:12.145Z,974.6100
2023-09-30T02:20:14.530Z,974.6100
2023-09-30T02:21:16.646Z,974.6100
2023-09-30T02:22:18.845Z,974.6100
2023-09-30T02:23:21.070Z,974.6100
2023-09-30T02:24:23.391Z,974.5900
2023-09-30T02:25:23.445Z,974.5500
2023-09-30T02:26:25.612Z,974.5500
2023-09-30T02:27:27.894Z,974.5500
2023-09-30T02:28:30.103Z,974.5500
2023-09-30T02:29:32.310Z,974.5700
2023-09-30T02:30:34.470Z,974.5500
2023-09-30T02:31:36.674Z,974.5900
2023-09-30T02:32:38.770Z,974.6100
2023-09-30T02:33:40.899Z,974.6500
2023-09-30T02:34:43.094Z,974.6300
2023-09-30T02:35:43.211Z,974.6500
2023-09-30T02:36:45.481Z,974.6700
2023-09-30T02:37:47.685Z,974.7500
2023-09-30T02:38:49.908Z,974.7500
2023-09-30T02:39:52.177Z,974.7500
2023-09-30T02:40:54.501Z,974.6700
2023-09-30T02:41:56.597Z,974.6700
2023-09-30T02:42:58.826Z,974.7500
2023-09-30T02:44:00.994Z,974.7500
2023-09-30T02:45:03.181Z,974.7700
2023-09-30T02:46:05.562Z,974.7700
2023-09-30T02:47:07.521Z,974.6700
2023-09-30T02:48:09.850Z,974.6700
2023-09-30T02:49:11.792Z,974.7500
2023-09-30T02:50:13.983Z,974.7500
2023-09-30T02:51:16.240Z,974.7500
2023-09-30T02:52:18.240Z,974.7500
2023-09-30T02:53:20.419Z,974.7700
2023-09-30T02:54:22.652Z,974.7700
2023-09-30T02:55:24.698Z,974.6700
2023-09-30T02:56:26.864Z,974.6700
2023-09-30T02:57:29.150Z,974.6700
2023-09-30T02:58:31.089Z,974.6500
2023-09-30T02:59:33.284Z,974.6500
2023-09-30T03:00:35.466Z,974.6300
2023-09-30T03:01:37.750Z,974.6300
2023-09-30T03:02:39.668Z,974.6300
2023-09-30T03:03:41.906Z,974.6500
2023-09-30T03:04:44.156Z,974.6700
2023-09-30T03:05:46.214Z,974.6700
2023-09-30T03:06:48.464Z,974.6700
2023-09-30T03:07:50.606Z,974.6700
2023-09-30T03:08:52.846Z,974.6700
2023-09-30T03:09:55.084Z,974.6500
2023-09-30T03:10:57.261Z,974.6300
2023-09-30T03:11:59.465Z,974.6300
2023-09-30T03:13:01.601Z,974.6100
2023-09-30T03:14:03.763Z,974.6300
2023-09-30T03:15:05.901Z,974.6500
2023-09-30T03:16:08.077Z,974.7500
2023-09-30T03:17:10.387Z,974.7700
2023-09-30T03:18:12.528Z,974.7700
2023-09-30T03:19:14.723Z,974.7700
2023-09-30T03:20:16.880Z,974.7900
2023-09-30T03:21:19.191Z,974.7900
2023-09-30T03:22:21.368Z,974.8100
2023-09-30T03:23:23.570Z,974.7700
2023-09-30T03:24:23.622Z,974.7700
2023-09-30T03:25:25.837Z,974.6700
2023-09-30T03:26:28.021Z,974.6300
2023-09-30T03:27:30.285Z,974.6300
2023-09-30T03:28:32.442Z,974.6100
2023-09-30T03:29:32.483Z,974.6300
2023-09-30T03:30:34.728Z,974.6300
2023-09-30T03:31:36.898Z,974.6500
2023-09-30T03:32:39.278Z,974.6700
2023-09-30T03:33:41.283Z,974.7700
2023-09-30T03:34:43.438Z,974.7900
2023-09-30T03:35:45.624Z,974.8100
2023-09-30T03:36:47.866Z,974.8100
2023-09-30T03:37:50.123Z,974.8300
2023-09-30T03:38:52.207Z,974.8300
2023-09-30T03:39:54.438Z,974.8100
2023-09-30T03:40:56.685Z,974.7900
2023-09-30T03:41:58.927Z,974.7900
2023-09-30T03:43:01.306Z,974.7900
2023-09-30T03:44:01.300Z,974.8100
2023-09-30T03:45:03.539Z,974.8300
2023-09-30T03:46:05.735Z,974.8700
2023-09-30T03:47:07.943Z,974.8700
2023-09-30T03:48:10.334Z,974.8900
2023-09-30T03:49:10.224Z,974.8700
2023-09-30T03:50:12.437Z,974.8700
2023-09-30T03:51:14.598Z,974.8500
2023-09-30T03:52:16.792Z,974.8500
2023-09-30T03:53:19.042Z,974.8300
2023-09-30T03:54:21.261Z,974.8300
2023-09-30T03:55:23.422Z,974.8500
2023-09-30T03:56:25.612Z,974.9100
2023-09-30T03:57:27.903Z,974.9300
2023-09-30T03:58:30.038Z,974.9500
2023-09-30T03:59:32.191Z,974.9700
2023-09-30T04:00:34.465Z,974.9700
2023-09-30T04:01:36.637Z,974.9700
2023-09-30T04:02:38.852Z,974.9700
2023-09-30T04:03:41.183Z,974.9900
2023-09-30T04:04:43.182Z,974.9900
2023-09-30T04:05:45.359Z,974.9900
2023-09-30T04:06:47.568Z,974.9900
2023-09-30T04:07:49.736Z,974.9700
2023-09-30T04:08:51.914Z,974.8900
2023-09-30T04:09:51.976Z,974.8500
2023-09-30T04:10:54.149Z,974.8100
2023-09-30T04:11:56.376Z,974.7700
2023-09-30T04:12:58.605Z,974.7500
2023-09-30T04:14:00.910Z,974.7700
2023-09-30T04:15:00.997Z,974.7700
2023-09-30T04:16:03.253Z,974.6700
2023-09-30T04:17:05.477Z,974.6100
2023-09-30T04:18:07.764Z,974.5900
2023-09-30T04:19:09.965Z,974.5700
2023-09-30T04:20:12.201Z,974.5700
2023-09-30T04:21:14.397Z,974.5900
2023-09-30T04:22:16.574Z,974.5900
2023-09-30T04:23:18.810Z,974.5700
2023-09-30T04:24:21.189Z,974.5900
2023-09-30T04:25:23.221Z,974.5700
2023-09-30T04:26:25.408Z,974.5900
2023-09-30T04:27:27.676Z,974.5900
2023-09-30T04:28:27.720Z,974.5900
2023-09-30T04:29:29.921Z,974.5500
2023-09-30T04:30:32.237Z,974.5000
2023-09-30T04:31:34.423Z,974.4400
2023-09-30T04:32:36.598Z,974.4200
2023-09-30T04:33:36.727Z,974.4200
2023-09-30T04:34:38.907Z,974.4400
2023-09-30T04:35:41.107Z,974.4600
2023-09-30T04:36:43.389Z,974.4800
2023-09-30T04:37:45.563Z,974.4800
2023-09-30T04:38:45.652Z,974.4800
2023-09-30T04:39:47.957Z,974.4800
2023-09-30T04:40:50.050Z,974.5000
2023-09-30T04:41:52.192Z,974.5200
2023-09-30T04:42:54.328Z,974.5300
2023-09-30T04:43:56.789Z,974.5700
2023-09-30T04:44:58.732Z,974.6100
2023-09-30T04:46:00.874Z,974.6100
2023-09-30T04:47:03.085Z,974.5900
2023-09-30T04:48:05.373Z,974.5900
2023-09-30T04:49:07.406Z,974.6100
2023-09-30T04:50:07.443Z,974.6300
2023-09-30T04:51:09.938Z,974.6300
2023-09-30T04:52:11.793Z,974.6500
2023-09-30T04:53:13.909Z,974.6700
2023-09-30T04:54:16.139Z,974.6700
2023-09-30T04:55:18.329Z,974.7500
2023-09-30T04:56:18.340Z,974.7500
2023-09-30T04:57:20.579Z,974.7700
2023-09-30T04:58:24.990Z,974.7700
2023-09-30T04:59:24.886Z,974.6700
2023-09-30T05:00:27.573Z,974.7500
2023-09-30T05:01:29.224Z,974.7900
2023-09-30T05:02:31.369Z,974.8100
2023-09-30T05:03:33.595Z,974.8500
2023-09-30T05:04:35.820Z,974.8500
2023-09-30T05:05:37.877Z,974.8700
2023-09-30T05:06:40.050Z,974.8500
2023-09-30T05:07:42.208Z,974.8900
2023-09-30T05:08:44.413Z,974.8500
2023-09-30T05:09:46.653Z,974.8500
2023-09-30T05:10:48.891Z,974.8500
2023-09-30T05:11:51.048Z,974.8500
2023-09-30T05:12:51.146Z,974.8900
2023-09-30T05:13:53.324Z,974.9700
2023-09-30T05:14:55.544Z,974.9900
2023-09-30T05:15:57.884Z,975.0100
2023-09-30T05:17:00.063Z,975.0300
2023-09-30T05:18:00.075Z,975.0700
2023-09-30T05:19:02.306Z,975.1100
2023-09-30T05:20:04.507Z,975.1100
2023-09-30T05:21:06.768Z,975.0900
2023-09-30T05:22:08.989Z,975.0900
2023-09-30T05:23:11.277Z,975.0500
2023-09-30T05:24:13.559Z,975.0100
2023-09-30T05:25:15.749Z,974.9900
2023-09-30T05:26:18.018Z,974.9500
2023-09-30T05:27:20.270Z,974.8900
2023-09-30T05:28:22.453Z,974.8500
2023-09-30T05:29:24.714Z,974.8300
2023-09-30T05:30:27.114Z,974.8100
2023-09-30T05:31:31.123Z,974.8100
2023-09-30T05:32:31.353Z,974.8500
2023-09-30T05:33:33.465Z,974.8700
2023-09-30T05:34:35.522Z,974.8900
2023-09-30T05:35:37.687Z,974.9500
2023-09-30T05:36:39.954Z,974.9900
2023-09-30T05:37:42.010Z,975.0100
2023-09-30T05:38:44.187Z,975.0700
2023-09-30T05:39:46.341Z,975.0900
2023-09-30T05:40:48.312Z,975.1300
2023-09-30T05:41:50.624Z,975.1800
2023-09-30T05:42:52.806Z,975.2200
2023-09-30T05:43:55.052Z,975.2200
2023-09-30T05:44:57.160Z,975.2200
2023-09-30T05:46:01.846Z,975.2200
2023-09-30T05:47:01.778Z,975.1800
2023-09-30T05:48:04.064Z,975.1800
2023-09-30T05:49:06.366Z,975.1400
2023-09-30T05:50:08.597Z,975.1400
2023-09-30T05:51:08.713Z,975.1400
2023-09-30T05:52:11.008Z,975.1600
2023-09-30T05:53:13.283Z,975.1800
2023-09-30T05:54:15.656Z,975.2000
2023-09-30T05:55:17.895Z,975.2200
2023-09-30T05:56:20.176Z,975.2200
2023-09-30T05:57:22.578Z,975.2600
2023-09-30T05:58:22.632Z,975.2400
2023-09-30T05:59:24.930Z,975.2200
2023-09-30T06:00:27.264Z,975.2000
2023-09-30T06:01:29.566Z,975.2200
2023-09-30T06:02:31.923Z,975.2200
2023-09-30T06:03:34.258Z,975.2400
2023-09-30T06:04:36.515Z,975.2200
2023-09-30T06:05:38.707Z,975.2600
2023-09-30T06:06:40.953Z,975.3000
2023-09-30T06:07:43.172Z,975.3400
2023-09-30T06:08:45.367Z,975.3800
2023-09-30T06:09:45.592Z,975.4000
2023-09-30T06:10:47.650Z,975.4200
2023-09-30T06:11:49.871Z,975.4200
2023-09-30T06:12:52.081Z,975.4000
2023-09-30T06:13:54.179Z,975.4200
2023-09-30T06:14:56.406Z,975.4200
2023-09-30T06:15:58.587Z,975.4600
2023-09-30T06:17:00.837Z,975.4800
2023-09-30T06:18:03.070Z,975.5000
2023-09-30T06:19:05.218Z,975.4800
2023-09-30T06:20:05.287Z,975.5000
2023-09-30T06:21:07.457Z,975.4600
2023-09-30T06:22:09.654Z,975.4400
2023-09-30T06:23:11.951Z,975.4200
2023-09-30T06:24:14.068Z,975.3600
2023-09-30T06:25:16.339Z,975.3800
2023-09-30T06:26:18.464Z,975.4000
2023-09-30T06:27:20.723Z,975.4000
2023-09-30T06:28:22.898Z,975.4000
2023-09-30T06:29:25.048Z,975.4200
2023-09-30T06:30:25.210Z,975.3600
2023-09-30T06:31:27.411Z,975.3200
2023-09-30T06:32:29.578Z,975.2600
2023-09-30T06:33:31.861Z,975.2800
2023-09-30T06:34:34.002Z,975.2800
2023-09-30T06:35:34.053Z,975.3000
2023-09-30T06:36:36.299Z,975.3400
2023-09-30T06:37:38.480Z,975.3800
2023-09-30T06:38:40.700Z,975.4000
2023-09-30T06:39:42.947Z,975.4200
2023-09-30T06:40:45.127Z,975.4400
2023-09-30T06:41:47.230Z,975.4600
2023-09-30T06:42:49.382Z,975.4400
2023-09-30T06:43:51.568Z,975.4400
2023-09-30T06:44:53.754Z,975.5000
2023-09-30T06:45:56.059Z,975.5200
2023-09-30T06:46:58.130Z,975.5400
2023-09-30T06:48:00.269Z,975.5200
2023-09-30T06:49:02.520Z,975.5400
2023-09-30T06:50:04.642Z,975.5400
2023-09-30T06:51:06.819Z,975.5400
2023-09-30T06:52:06.847Z,975.5400
2023-09-30T06:53:09.027Z,975.5400
2023-09-30T06:54:11.237Z,975.5400
2023-09-30T06:55:13.365Z,975.5200
2023-09-30T06:56:16.057Z,975.5400
2023-09-30T06:57:17.704Z,975.5800
2023-09-30T06:58:17.736Z,975.6000
2023-09-30T06:59:19.972Z,975.6100
2023-09-30T07:00:22.171Z,975.6100
2023-09-30T07:01:24.317Z,975.6000
2023-09-30T07:02:26.456Z,975.6100
2023-09-30T07:03:28.882Z,975.6100
2023-09-30T07:04:28.771Z,975.6300
2023-09-30T07:05:30.844Z,975.6900
2023-09-30T07:06:33.079Z,975.7100
2023-09-30T07:07:35.212Z,975.7100
2023-09-30T07:08:37.394Z,975.7100
2023-09-30T07:09:39.652Z,975.7100
2023-09-30T07:10:41.756Z,975.7100
2023-09-30T07:11:43.945Z,975.6700
2023-09-30T07:12:46.157Z,975.6900
2023-09-30T07:13:48.237Z,975.7100
2023-09-30T07:14:50.432Z,975.6900
2023-09-30T07:15:52.633Z,975.6900
2023-09-30T07:16:54.818Z,975.6900
2023-09-30T07:17:56.979Z,975.6900
2023-09-30T07:18:59.336Z,975.6900
2023-09-30T07:20:01.312Z,975.7300
2023-09-30T07:21:03.469Z,975.7300
2023-09-30T07:22:05.683Z,975.7500
2023-09-30T07:23:18.843Z,975.7500
2023-09-30T07:24:09.958Z,975.7900
2023-09-30T07:25:12.218Z,975.7900
2023-09-30T07:26:14.404Z,975.8500
2023-09-30T07:27:27.164Z,975.8900
2023-09-30T07:28:18.862Z,975.8900
2023-09-30T07:29:21.072Z,975.8500
2023-09-30T07:30:23.337Z,975.8700
2023-09-30T07:31:23.369Z,975.9100
2023-09-30T07:32:25.594Z,975.9100
2023-09-30T07:33:27.859Z,975.9700
2023-09-30T07:34:30.122Z,975.9900
2023-09-30T07:35:32.465Z,976.0100
2023-09-30T07:36:34.623Z,976.0100
2023-09-30T07:37:36.791Z,976.0300
2023-09-30T07:38:39.029Z,976.0500
2023-09-30T07:39:41.303Z,976.0800
2023-09-30T07:40:43.499Z,976.0500
2023-09-30T07:41:45.681Z,976.0300
2023-09-30T07:42:47.936Z,976.0300
2023-09-30T07:43:50.142Z,976.0100
2023-09-30T07:44:52.373Z,976.0100
2023-09-30T07:45:55.820Z,975.9700
2023-09-30T07:46:56.909Z,975.9500
2023-09-30T07:47:59.152Z,975.9100
2023-09-30T07:49:01.316Z,975.8700
2023-09-30T07:50:03.473Z,975.9100
2023-09-30T07:51:05.708Z,975.9100
2023-09-30T07:52:07.789Z,975.9500
2023-09-30T07:53:09.941Z,975.9500
2023-09-30T07:54:30.526Z,975.9500
2023-09-30T07:55:14.343Z,975.9700
2023-09-30T07:56:16.520Z,975.9300
2023-09-30T07:57:18.699Z,975.9500
2023-09-30T07:58:20.872Z,975.9300
2023-09-30T07:59:23.025Z,975.9500
2023-09-30T08:00:25.293Z,975.9300
2023-09-30T08:01:27.604Z,975.9100
2023-09-30T08:02:29.638Z,975.9100
2023-09-30T08:03:31.918Z,975.8900
2023-09-30T08:04:33.974Z,975.8900
2023-09-30T08:05:36.115Z,975.8500
2023-09-30T08:06:38.459Z,975.8500
2023-09-30T08:07:40.600Z,975.8300
2023-09-30T08:08:42.857Z,975.8100
2023-09-30T08:09:45.160Z,975.8100
2023-09-30T08:10:47.350Z,975.8100
2023-09-30T08:11:49.604Z,975.8100
2023-09-30T08:12:51.843Z,975.8100
2023-09-30T08:13:54.033Z,975.8100
2023-09-30T08:14:56.290Z,975.8300
2023-09-30T08:15:58.547Z,975.8300
2023-09-30T08:17:00.782Z,975.8500
2023-09-30T08:18:02.937Z,975.8500
2023-09-30T08:19:05.149Z,975.8100
2023-09-30T08:20:07.403Z,975.7900
2023-09-30T08:22:34.315Z,975.7700
2023-09-30T08:23:35.411Z,975.7900
2023-09-30T08:24:37.680Z,975.8100
2023-09-30T08:25:39.856Z,975.8700
2023-09-30T08:26:42.083Z,975.8700
2023-09-30T08:27:44.361Z,975.9500
2023-09-30T08:28:46.496Z,976.0100
2023-09-30T08:29:48.750Z,976.0500
2023-09-30T08:30:51.039Z,976.1000
2023-09-30T08:31:51.116Z,976.1400
2023-09-30T08:32:53.353Z,976.1800
2023-09-30T08:33:55.527Z,976.2000
2023-09-30T08:34:57.740Z,976.2400
2023-09-30T08:35:59.970Z,976.2400
2023-09-30T08:37:02.214Z,976.2400
2023-09-30T08:38:04.394Z,976.2400
2023-09-30T08:39:06.520Z,976.2400
2023-09-30T08:40:08.691Z,976.1800
2023-09-30T08:41:10.858Z,976.1600
2023-09-30T08:42:13.090Z,976.1200
2023-09-30T08:43:15.285Z,976.0500
2023-09-30T08:44:17.346Z,976.0500
2023-09-30T08:45:19.537Z,975.9700
2023-09-30T08:46:21.780Z,975.9100
2023-09-30T08:47:23.964Z,975.8700
2023-09-30T08:48:26.187Z,975.8500
2023-09-30T08:49:28.373Z,975.8500
2023-09-30T08:50:28.423Z,975.8500
2023-09-30T08:51:30.640Z,975.8500
2023-09-30T08:52:32.810Z,975.8300
2023-09-30T08:53:34.984Z,975.7500
2023-09-30T08:54:37.172Z,975.7100
2023-09-30T08:55:39.313Z,975.6300
2023-09-30T08:56:41.484Z,975.5400
2023-09-30T08:57:43.760Z,975.5000
2023-09-30T08:58:45.895Z,975.5000
2023-09-30T08:59:48.093Z,975.5000
2023-09-30T09:00:50.453Z,975.5800
2023-09-30T09:01:52.598Z,975.5800
2023-09-30T09:02:54.827Z,975.6000
2023-09-30T09:03:57.199Z,975.5800
2023-09-30T09:04:59.241Z,975.5800
2023-09-30T09:06:01.396Z,975.5200
2023-09-30T09:07:03.602Z,975.5400
2023-09-30T09:08:03.685Z,975.5200
2023-09-30T09:09:05.933Z,975.5600
2023-09-30T09:10:08.146Z,975.5400
2023-09-30T09:11:10.400Z,975.5800
2023-09-30T09:12:12.609Z,975.5800
2023-09-30T09:13:14.841Z,975.5800
2023-09-30T09:14:17.090Z,975.5800
2023-09-30T09:15:19.434Z,975.5200
2023-09-30T09:16:21.638Z,975.5600
2023-09-30T09:17:23.700Z,975.5600
2023-09-30T09:18:25.912Z,975.5800
2023-09-30T09:19:28.133Z,975.6000
2023-09-30T09:20:30.329Z,975.6100
2023-09-30T09:21:32.583Z,975.6500
2023-09-30T09:22:32.696Z,975.6900
2023-09-30T09:23:34.891Z,975.7300
2023-09-30T09:24:37.299Z,975.7900
2023-09-30T09:25:39.245Z,975.7700
2023-09-30T09:26:41.392Z,975.7500
2023-09-30T09:27:43.638Z,975.7300
2023-09-30T09:28:45.708Z,975.7300
2023-09-30T09:29:47.903Z,975.7300
2023-09-30T09:30:50.095Z,975.7700
2023-09-30T09:31:52.318Z,975.8100
2023-09-30T09:32:54.428Z,975.8300
2023-09-30T09:33:56.646Z,975.8500
2023-09-30T09:34:58.808Z,975.8100
2023-09-30T09:36:00.884Z,975.7900
2023-09-30T09:37:03.012Z,975.7500
2023-09-30T09:38:05.172Z,975.7300
2023-09-30T09:39:07.385Z,975.7100
2023-09-30T09:40:09.660Z,975.7300
2023-09-30T09:41:11.855Z,975.7300
2023-09-30T09:42:14.103Z,975.7300
2023-09-30T09:43:16.258Z,975.7900
2023-09-30T09:44:18.509Z,975.8100
2023-09-30T09:45:18.627Z,975.8100
2023-09-30T09:46:20.832Z,975.8100
2023-09-30T09:47:23.023Z,975.7900
2023-09-30T09:48:25.219Z,975.7700
2023-09-30T09:49:27.290Z,975.7900
2023-09-30T09:50:29.519Z,975.7900
2023-09-30T09:51:31.641Z,975.7900
2023-09-30T09:52:33.942Z,975.7500
2023-09-30T09:53:35.905Z,975.7900
2023-09-30T09:54:38.074Z,975.7900
2023-09-30T09:55:40.520Z,975.7700
2023-09-30T09:56:42.383Z,975.7900
2023-09-30T09:57:44.574Z,975.7900
2023-09-30T09:58:46.684Z,975.7700
2023-09-30T09:59:48.865Z,975.7700
2023-09-30T10:00:51.105Z,975.7500
2023-09-30T10:01:53.203Z,975.7300
2023-09-30T10:02:55.417Z,975.7100
2023-09-30T10:03:57.551Z,975.7300
2023-09-30T10:04:59.663Z,975.7300
2023-09-30T10:06:01.802Z,975.6900
2023-09-30T10:07:03.948Z,975.7100
2023-09-30T10:08:06.095Z,975.7100
2023-09-30T10:09:08.280Z,975.7100
2023-09-30T10:10:10.472Z,975.7300
2023-09-30T10:11:12.690Z,975.7100
2023-09-30T10:12:15.016Z,975.7100
2023-09-30T10:13:17.134Z,975.7300
2023-09-30T10:14:19.295Z,975.7100
2023-09-30T10:15:21.498Z,975.6700
2023-09-30T10:16:21.579Z,975.6700
2023-09-30T10:17:23.725Z,975.6500
2023-09-30T10:18:25.984Z,975.6300
2023-09-30T10:19:28.129Z,975.6500
2023-09-30T10:20:30.331Z,975.6300
2023-09-30T10:21:32.562Z,975.6000
2023-09-30T10:22:34.797Z,975.6300
2023-09-30T10:23:36.903Z,975.6000
2023-09-30T10:24:39.188Z,975.6000
2023-09-30T10:25:41.186Z,975.5400
2023-09-30T10:26:43.476Z,975.5200
2023-09-30T10:27:45.529Z,975.4400
2023-09-30T10:28:47.724Z,975.3800
2023-09-30T10:31:02.961Z,975.2800
2023-09-30T10:32:05.067Z,975.2600
2023-09-30T10:33:07.255Z,975.2400
2023-09-30T10:34:09.442Z,975.2800
2023-09-30T10:35:11.620Z,975.2600
2023-09-30T10:36:11.651Z,975.2800
2023-09-30T10:37:14.016Z,975.2800
2023-09-30T10:38:16.038Z,975.3000
2023-09-30T10:39:18.251Z,975.3000
2023-09-30T10:40:20.461Z,975.2800
2023-09-30T10:41:22.663Z,975.2400
2023-09-30T10:42:24.947Z,975.2400
2023-09-30T10:43:27.048Z,975.2000
2023-09-30T10:44:29.270Z,975.1800
2023-09-30T10:45:31.509Z,975.1300
2023-09-30T10:46:33.676Z,975.1300
2023-09-30T10:47:35.813Z,975.0700
2023-09-30T10:48:38.044Z,975.0500
2023-09-30T10:49:40.147Z,975.0500
2023-09-30T10:50:42.317Z,975.0500
2023-09-30T10:51:44.565Z,975.0500
2023-09-30T10:52:44.610Z,975.0100
2023-09-30T10:53:46.775Z,975.0100
2023-09-30T10:54:48.990Z,974.9500
2023-09-30T10:55:51.159Z,974.9500
2023-09-30T10:56:53.317Z,974.9700
2023-09-30T10:57:55.654Z,974.9900
2023-09-30T10:58:57.921Z,974.9900
2023-09-30T10:59:59.814Z,974.9900
2023-09-30T11:01:02.047Z,974.9700
2023-09-30T11:02:04.291Z,974.9900
2023-09-30T11:03:06.427Z,975.0100
2023-09-30T11:04:08.560Z,975.0100
2023-09-30T11:05:10.713Z,974.9900
2023-09-30T11:06:13.144Z,974.9700
2023-09-30T11:07:14.779Z,974.9900
2023-09-30T11:08:16.920Z,974.9700
2023-09-30T11:09:19.027Z,974.9700
2023-09-30T11:10:21.199Z,974.9700
2023-09-30T11:11:23.263Z,974.9700
2023-09-30T11:12:25.513Z,974.9700
2023-09-30T11:13:27.575Z,974.9700
2023-09-30T11:14:30.719Z,974.9500
2023-09-30T11:15:31.952Z,974.9100
2023-09-30T11:16:32.035Z,974.9100
2023-09-30T11:17:34.220Z,974.8700
2023-09-30T11:18:36.441Z,974.8900
2023-09-30T11:19:38.769Z,974.8900
2023-09-30T11:20:40.841Z,974.9500
2023-09-30T11:21:43.003Z,974.9500
2023-09-30T11:22:45.132Z,974.9300
2023-09-30T11:23:47.404Z,974.9300
2023-09-30T11:24:49.452Z,974.9100
2023-09-30T11:25:51.570Z,974.8900
2023-09-30T11:26:53.722Z,974.8900
2023-09-30T11:27:55.900Z,974.9100
2023-09-30T11:28:58.267Z,974.8700
2023-09-30T11:30:00.285Z,974.8900
2023-09-30T11:31:02.470Z,974.8900
2023-09-30T11:32:04.546Z,974.9100
2023-09-30T11:33:06.745Z,974.8900
2023-09-30T11:34:08.990Z,974.8500
2023-09-30T11:35:11.089Z,974.9100
2023-09-30T11:37:11.507Z,974.8700
2023-09-30T11:38:13.404Z,974.8700
2023-09-30T11:39:15.540Z,974.8900
2023-09-30T11:40:17.691Z,974.8700
2023-09-30T11:41:19.826Z,974.8700
2023-09-30T11:42:22.029Z,974.8300
2023-09-30T11:43:24.177Z,974.8100
2023-09-30T11:44:26.422Z,974.7900
2023-09-30T11:45:28.640Z,974.7900
2023-09-30T11:46:30.818Z,974.7700
2023-09-30T11:47:32.962Z,974.7700
2023-09-30T11:48:35.127Z,974.7700
2023-09-30T11:49:37.302Z,974.8100
2023-09-30T11:50:39.432Z,974.8100
2023-09-30T11:51:41.570Z,974.8100
2023-09-30T11:52:42.639Z,974.7900
2023-09-30T11:53:44.780Z,974.8100
2023-09-30T11:54:47.081Z,974.8100
2023-09-30T11:55:49.117Z,974.8300
2023-09-30T11:56:51.307Z,974.8500
2023-09-30T11:57:53.541Z,974.8500
2023-09-30T11:58:55.681Z,974.8700
2023-09-30T11:59:57.851Z,974.8900
2023-09-30T12:01:00.094Z,974.9100
2023-09-30T12:02:14.372Z,974.8900
2023-09-30T12:03:04.387Z,974.8900
2023-09-30T12:04:06.615Z,974.8700
2023-09-30T12:05:08.795Z,974.8500
2023-09-30T12:06:10.890Z,974.8500
2023-09-30T12:07:13.177Z,974.7700
2023-09-30T12:08:15.411Z,974.7900
2023-09-30T12:09:15.509Z,974.7900
2023-09-30T12:10:17.777Z,974.7900
2023-09-30T12:11:20.152Z,974.6700
2023-09-30T12:12:22.175Z,974.6500